sensor_id;sensor_type;location;lat;lon;timestamp;P1;durP1;ratioP1;P2;durP2;ratioP2
84254;SDS011;74400;44.692;18.998;2023-12-29T00:01:48;34.03;;;18.17;;
84254;SDS011;74400;44.692;18.998;2023-12-29T00:04:13;31.35;;;17.25;;
84254;SDS011;74400;44.692;18.998;2023-12-29T00:06:39;37.85;;;18.92;;
84254;SDS011;74400;44.692;18.998;2023-12-29T00:09:06;38.00;;;19.50;;
84254;SDS011;74400;44.692;18.998;2023-12-29T00:11:32;35.58;;;19.17;;
84254;SDS011;74400;44.692;18.998;2023-12-29T00:13:59;47.60;;;22.35;;
84254;SDS011;74400;44.692;18.998;2023-12-29T00:16:25;43.78;;;23.35;;
84254;SDS011;74400;44.692;18.998;2023-12-29T00:18:53;42.05;;;21.38;;
84254;SDS011;74400;44.692;18.998;2023-12-29T00:21:18;41.58;;;19.55;;
84254;SDS011;74400;44.692;18.998;2023-12-29T00:23:44;38.72;;;20.85;;
84254;SDS011;74400;44.692;18.998;2023-12-29T00:26:09;43.58;;;23.42;;
84254;SDS011;74400;44.692;18.998;2023-12-29T00:28:36;45.63;;;21.80;;
84254;SDS011;74400;44.692;18.998;2023-12-29T00:31:06;39.13;;;20.42;;
84254;SDS011;74400;44.692;18.998;2023-12-29T00:33:32;37.63;;;20.25;;
84254;SDS011;74400;44.692;18.998;2023-12-29T00:35:57;38.00;;;18.73;;
84254;SDS011;74400;44.692;18.998;2023-12-29T00:38:25;31.70;;;16.23;;
84254;SDS011;74400;44.692;18.998;2023-12-29T00:40:52;37.83;;;19.98;;
84254;SDS011;74400;44.692;18.998;2023-12-29T00:43:18;36.17;;;20.92;;
84254;SDS011;74400;44.692;18.998;2023-12-29T00:45:43;42.85;;;20.70;;
84254;SDS011;74400;44.692;18.998;2023-12-29T00:48:09;35.00;;;19.00;;
84254;SDS011;74400;44.692;18.998;2023-12-29T00:50:34;37.03;;;20.50;;
84254;SDS011;74400;44.692;18.998;2023-12-29T00:53:00;45.75;;;21.27;;
84254;SDS011;74400;44.692;18.998;2023-12-29T00:55:26;40.55;;;21.50;;
84254;SDS011;74400;44.692;18.998;2023-12-29T00:57:51;38.97;;;21.17;;
84254;SDS011;74400;44.692;18.998;2023-12-29T01:00:17;37.85;;;20.10;;
84254;SDS011;74400;44.692;18.998;2023-12-29T01:02:43;35.97;;;20.08;;
84254;SDS011;74400;44.692;18.998;2023-12-29T01:05:08;37.50;;;18.80;;
84254;SDS011;74400;44.692;18.998;2023-12-29T01:07:34;39.13;;;19.58;;
84254;SDS011;74400;44.692;18.998;2023-12-29T01:10:00;37.75;;;19.05;;
84254;SDS011;74400;44.692;18.998;2023-12-29T01:12:26;35.42;;;18.73;;
84254;SDS011;74400;44.692;18.998;2023-12-29T01:14:52;33.28;;;17.65;;
84254;SDS011;74400;44.692;18.998;2023-12-29T01:17:18;37.67;;;19.35;;
84254;SDS011;74400;44.692;18.998;2023-12-29T01:19:44;38.90;;;19.42;;
84254;SDS011;74400;44.692;18.998;2023-12-29T01:22:10;34.10;;;18.52;;
84254;SDS011;74400;44.692;18.998;2023-12-29T01:24:35;35.38;;;18.13;;
84254;SDS011;74400;44.692;18.998;2023-12-29T01:27:01;30.65;;;15.60;;
84254;SDS011;74400;44.692;18.998;2023-12-29T01:29:29;29.02;;;15.00;;
84254;SDS011;74400;44.692;18.998;2023-12-29T01:31:54;30.02;;;14.18;;
84254;SDS011;74400;44.692;18.998;2023-12-29T01:34:20;27.90;;;15.55;;
84254;SDS011;74400;44.692;18.998;2023-12-29T01:36:46;29.95;;;16.27;;
84254;SDS011;74400;44.692;18.998;2023-12-29T01:39:11;25.52;;;15.50;;
84254;SDS011;74400;44.692;18.998;2023-12-29T01:41:37;29.10;;;17.35;;
84254;SDS011;74400;44.692;18.998;2023-12-29T01:46:29;34.58;;;20.05;;
84254;SDS011;74400;44.692;18.998;2023-12-29T01:48:57;37.83;;;20.58;;
84254;SDS011;74400;44.692;18.998;2023-12-29T01:51:24;36.17;;;20.45;;
84254;SDS011;74400;44.692;18.998;2023-12-29T01:53:54;39.97;;;19.80;;
84254;SDS011;74400;44.692;18.998;2023-12-29T01:56:21;34.35;;;18.98;;
84254;SDS011;74400;44.692;18.998;2023-12-29T01:58:49;36.70;;;19.48;;
84254;SDS011;74400;44.692;18.998;2023-12-29T02:01:16;41.45;;;20.23;;
84254;SDS011;74400;44.692;18.998;2023-12-29T02:03:44;35.92;;;19.80;;
84254;SDS011;74400;44.692;18.998;2023-12-29T02:06:10;36.80;;;19.92;;
84254;SDS011;74400;44.692;18.998;2023-12-29T02:08:36;37.60;;;18.50;;
84254;SDS011;74400;44.692;18.998;2023-12-29T02:11:03;34.65;;;18.27;;
84254;SDS011;74400;44.692;18.998;2023-12-29T02:13:29;28.98;;;16.75;;
84254;SDS011;74400;44.692;18.998;2023-12-29T02:15:54;31.10;;;15.20;;
84254;SDS011;74400;44.692;18.998;2023-12-29T02:18:25;33.85;;;17.33;;
84254;SDS011;74400;44.692;18.998;2023-12-29T02:20:53;32.22;;;16.85;;
84254;SDS011;74400;44.692;18.998;2023-12-29T02:23:19;29.98;;;16.15;;
84254;SDS011;74400;44.692;18.998;2023-12-29T02:25:44;28.77;;;17.02;;
84254;SDS011;74400;44.692;18.998;2023-12-29T02:28:20;35.03;;;17.98;;
84254;SDS011;74400;44.692;18.998;2023-12-29T02:33:29;34.08;;;16.50;;
84254;SDS011;74400;44.692;18.998;2023-12-29T02:36:01;28.60;;;16.10;;
84254;SDS011;74400;44.692;18.998;2023-12-29T02:38:29;32.90;;;17.02;;
84254;SDS011;74400;44.692;18.998;2023-12-29T02:40:56;33.25;;;17.90;;
84254;SDS011;74400;44.692;18.998;2023-12-29T02:43:22;31.70;;;17.60;;
84254;SDS011;74400;44.692;18.998;2023-12-29T02:45:48;35.67;;;19.23;;
84254;SDS011;74400;44.692;18.998;2023-12-29T02:48:13;34.40;;;18.85;;
84254;SDS011;74400;44.692;18.998;2023-12-29T02:50:39;34.33;;;18.92;;
84254;SDS011;74400;44.692;18.998;2023-12-29T02:53:05;34.67;;;18.20;;
84254;SDS011;74400;44.692;18.998;2023-12-29T02:55:31;41.42;;;19.33;;
84254;SDS011;74400;44.692;18.998;2023-12-29T02:57:57;40.50;;;19.23;;
84254;SDS011;74400;44.692;18.998;2023-12-29T03:00:22;30.95;;;17.98;;
84254;SDS011;74400;44.692;18.998;2023-12-29T03:02:48;35.20;;;18.63;;
84254;SDS011;74400;44.692;18.998;2023-12-29T03:05:14;31.48;;;18.00;;
84254;SDS011;74400;44.692;18.998;2023-12-29T03:07:41;34.15;;;17.70;;
84254;SDS011;74400;44.692;18.998;2023-12-29T03:10:07;33.00;;;17.40;;
84254;SDS011;74400;44.692;18.998;2023-12-29T03:12:34;30.27;;;17.17;;
84254;SDS011;74400;44.692;18.998;2023-12-29T03:15:00;27.17;;;15.90;;
84254;SDS011;74400;44.692;18.998;2023-12-29T03:17:25;32.83;;;15.10;;
84254;SDS011;74400;44.692;18.998;2023-12-29T03:19:52;27.13;;;13.80;;
84254;SDS011;74400;44.692;18.998;2023-12-29T03:22:18;30.70;;;15.60;;
84254;SDS011;74400;44.692;18.998;2023-12-29T03:24:43;35.83;;;17.52;;
84254;SDS011;74400;44.692;18.998;2023-12-29T03:27:09;31.20;;;16.73;;
84254;SDS011;74400;44.692;18.998;2023-12-29T03:29:35;32.42;;;17.52;;
84254;SDS011;74400;44.692;18.998;2023-12-29T03:32:01;28.80;;;16.83;;
84254;SDS011;74400;44.692;18.998;2023-12-29T03:34:27;29.15;;;16.27;;
84254;SDS011;74400;44.692;18.998;2023-12-29T03:36:53;32.90;;;16.63;;
84254;SDS011;74400;44.692;18.998;2023-12-29T03:39:18;30.73;;;16.77;;
84254;SDS011;74400;44.692;18.998;2023-12-29T03:41:44;34.25;;;18.17;;
84254;SDS011;74400;44.692;18.998;2023-12-29T03:44:10;42.40;;;19.88;;
84254;SDS011;74400;44.692;18.998;2023-12-29T03:46:36;31.58;;;17.13;;
84254;SDS011;74400;44.692;18.998;2023-12-29T03:49:01;31.30;;;16.63;;
84254;SDS011;74400;44.692;18.998;2023-12-29T03:51:28;34.72;;;16.85;;
84254;SDS011;74400;44.692;18.998;2023-12-29T03:53:54;35.85;;;17.83;;
84254;SDS011;74400;44.692;18.998;2023-12-29T03:56:20;31.02;;;17.27;;
84254;SDS011;74400;44.692;18.998;2023-12-29T03:58:46;30.25;;;18.40;;
84254;SDS011;74400;44.692;18.998;2023-12-29T04:01:14;31.75;;;16.80;;
84254;SDS011;74400;44.692;18.998;2023-12-29T04:03:40;33.38;;;16.33;;
84254;SDS011;74400;44.692;18.998;2023-12-29T04:06:07;27.23;;;15.18;;
84254;SDS011;74400;44.692;18.998;2023-12-29T04:08:33;29.77;;;15.23;;
84254;SDS011;74400;44.692;18.998;2023-12-29T04:11:03;33.40;;;16.10;;
84254;SDS011;74400;44.692;18.998;2023-12-29T04:13:29;28.27;;;15.25;;
84254;SDS011;74400;44.692;18.998;2023-12-29T04:15:55;29.42;;;16.25;;
84254;SDS011;74400;44.692;18.998;2023-12-29T04:18:21;25.45;;;14.93;;
84254;SDS011;74400;44.692;18.998;2023-12-29T04:20:48;32.25;;;15.40;;
84254;SDS011;74400;44.692;18.998;2023-12-29T04:23:14;28.27;;;15.73;;
84254;SDS011;74400;44.692;18.998;2023-12-29T04:25:40;34.22;;;17.27;;
84254;SDS011;74400;44.692;18.998;2023-12-29T04:28:08;27.02;;;15.40;;
84254;SDS011;74400;44.692;18.998;2023-12-29T04:30:34;25.02;;;13.60;;
84254;SDS011;74400;44.692;18.998;2023-12-29T04:33:00;30.08;;;15.27;;
84254;SDS011;74400;44.692;18.998;2023-12-29T04:35:26;28.67;;;16.13;;
84254;SDS011;74400;44.692;18.998;2023-12-29T04:37:51;33.63;;;16.65;;
84254;SDS011;74400;44.692;18.998;2023-12-29T04:40:17;30.75;;;15.90;;
84254;SDS011;74400;44.692;18.998;2023-12-29T04:42:43;32.97;;;16.08;;
84254;SDS011;74400;44.692;18.998;2023-12-29T04:45:09;29.60;;;17.13;;
84254;SDS011;74400;44.692;18.998;2023-12-29T04:47:35;28.50;;;16.65;;
84254;SDS011;74400;44.692;18.998;2023-12-29T04:50:02;28.25;;;14.30;;
84254;SDS011;74400;44.692;18.998;2023-12-29T04:52:28;27.27;;;15.40;;
84254;SDS011;74400;44.692;18.998;2023-12-29T04:54:53;27.98;;;15.48;;
84254;SDS011;74400;44.692;18.998;2023-12-29T04:57:19;29.50;;;16.17;;
84254;SDS011;74400;44.692;18.998;2023-12-29T04:59:45;27.60;;;14.68;;
84254;SDS011;74400;44.692;18.998;2023-12-29T05:02:10;26.17;;;15.45;;
84254;SDS011;74400;44.692;18.998;2023-12-29T05:04:36;27.88;;;14.65;;
84254;SDS011;74400;44.692;18.998;2023-12-29T05:09:29;30.10;;;15.48;;
84254;SDS011;74400;44.692;18.998;2023-12-29T05:11:54;28.10;;;15.30;;
84254;SDS011;74400;44.692;18.998;2023-12-29T05:14:20;26.42;;;15.55;;
84254;SDS011;74400;44.692;18.998;2023-12-29T05:16:46;31.45;;;16.15;;
84254;SDS011;74400;44.692;18.998;2023-12-29T05:19:12;31.38;;;16.40;;
84254;SDS011;74400;44.692;18.998;2023-12-29T05:21:37;27.05;;;15.55;;
84254;SDS011;74400;44.692;18.998;2023-12-29T05:26:30;27.95;;;15.52;;
84254;SDS011;74400;44.692;18.998;2023-12-29T05:28:56;31.95;;;15.48;;
84254;SDS011;74400;44.692;18.998;2023-12-29T05:31:22;27.65;;;14.70;;
84254;SDS011;74400;44.692;18.998;2023-12-29T05:33:47;27.88;;;14.65;;
84254;SDS011;74400;44.692;18.998;2023-12-29T05:36:13;33.13;;;15.63;;
84254;SDS011;74400;44.692;18.998;2023-12-29T05:42:08;34.50;;;17.10;;
84254;SDS011;74400;44.692;18.998;2023-12-29T05:44:35;32.70;;;16.35;;
84254;SDS011;74400;44.692;18.998;2023-12-29T05:47:01;31.13;;;16.40;;
84254;SDS011;74400;44.692;18.998;2023-12-29T05:49:27;36.60;;;19.65;;
84254;SDS011;74400;44.692;18.998;2023-12-29T05:51:53;32.60;;;18.08;;
84254;SDS011;74400;44.692;18.998;2023-12-29T05:54:19;31.55;;;17.00;;
84254;SDS011;74400;44.692;18.998;2023-12-29T05:56:45;35.42;;;18.30;;
84254;SDS011;74400;44.692;18.998;2023-12-29T05:59:11;31.85;;;17.70;;
84254;SDS011;74400;44.692;18.998;2023-12-29T06:01:37;34.78;;;18.38;;
84254;SDS011;74400;44.692;18.998;2023-12-29T06:04:02;29.25;;;16.98;;
84254;SDS011;74400;44.692;18.998;2023-12-29T06:06:29;28.35;;;16.15;;
84254;SDS011;74400;44.692;18.998;2023-12-29T06:08:55;31.08;;;17.33;;
84254;SDS011;74400;44.692;18.998;2023-12-29T06:11:20;33.08;;;16.85;;
84254;SDS011;74400;44.692;18.998;2023-12-29T06:13:46;29.58;;;17.35;;
84254;SDS011;74400;44.692;18.998;2023-12-29T06:16:19;38.00;;;18.45;;
84254;SDS011;74400;44.692;18.998;2023-12-29T06:18:45;37.05;;;18.33;;
84254;SDS011;74400;44.692;18.998;2023-12-29T06:21:13;30.88;;;16.17;;
84254;SDS011;74400;44.692;18.998;2023-12-29T06:23:39;31.42;;;16.77;;
84254;SDS011;74400;44.692;18.998;2023-12-29T06:26:05;28.42;;;16.83;;
84254;SDS011;74400;44.692;18.998;2023-12-29T06:28:30;36.03;;;18.92;;
84254;SDS011;74400;44.692;18.998;2023-12-29T06:30:56;33.92;;;17.63;;
84254;SDS011;74400;44.692;18.998;2023-12-29T06:33:22;25.15;;;15.10;;
84254;SDS011;74400;44.692;18.998;2023-12-29T06:35:48;27.15;;;15.90;;
84254;SDS011;74400;44.692;18.998;2023-12-29T06:38:13;27.00;;;16.15;;
84254;SDS011;74400;44.692;18.998;2023-12-29T06:40:39;30.58;;;15.93;;
84254;SDS011;74400;44.692;18.998;2023-12-29T06:43:05;27.33;;;15.43;;
84254;SDS011;74400;44.692;18.998;2023-12-29T06:45:31;25.08;;;13.75;;
84254;SDS011;74400;44.692;18.998;2023-12-29T06:47:57;25.98;;;15.13;;
84254;SDS011;74400;44.692;18.998;2023-12-29T06:50:23;27.30;;;15.20;;
84254;SDS011;74400;44.692;18.998;2023-12-29T06:52:49;31.33;;;16.83;;
84254;SDS011;74400;44.692;18.998;2023-12-29T06:55:14;30.23;;;17.33;;
84254;SDS011;74400;44.692;18.998;2023-12-29T06:57:40;26.17;;;16.63;;
84254;SDS011;74400;44.692;18.998;2023-12-29T07:00:06;29.20;;;15.35;;
84254;SDS011;74400;44.692;18.998;2023-12-29T07:02:32;29.48;;;15.15;;
84254;SDS011;74400;44.692;18.998;2023-12-29T07:04:57;31.83;;;17.27;;
84254;SDS011;74400;44.692;18.998;2023-12-29T07:07:24;27.60;;;15.88;;
84254;SDS011;74400;44.692;18.998;2023-12-29T07:09:50;30.02;;;16.65;;
84254;SDS011;74400;44.692;18.998;2023-12-29T07:12:22;31.48;;;16.20;;
84254;SDS011;74400;44.692;18.998;2023-12-29T07:14:49;47.88;;;24.35;;
84254;SDS011;74400;44.692;18.998;2023-12-29T07:17:14;42.17;;;21.58;;
84254;SDS011;74400;44.692;18.998;2023-12-29T07:19:40;41.40;;;21.40;;
84254;SDS011;74400;44.692;18.998;2023-12-29T07:22:06;39.53;;;20.83;;
84254;SDS011;74400;44.692;18.998;2023-12-29T07:24:33;30.38;;;18.00;;
84254;SDS011;74400;44.692;18.998;2023-12-29T07:27:00;33.33;;;17.25;;
84254;SDS011;74400;44.692;18.998;2023-12-29T07:29:26;25.80;;;14.52;;
84254;SDS011;74400;44.692;18.998;2023-12-29T07:31:52;26.58;;;14.32;;
84254;SDS011;74400;44.692;18.998;2023-12-29T07:34:18;24.88;;;14.60;;
84254;SDS011;74400;44.692;18.998;2023-12-29T07:36:45;24.23;;;13.57;;
84254;SDS011;74400;44.692;18.998;2023-12-29T07:39:10;23.45;;;14.00;;
84254;SDS011;74400;44.692;18.998;2023-12-29T07:41:40;27.80;;;14.63;;
84254;SDS011;74400;44.692;18.998;2023-12-29T07:44:07;25.17;;;14.07;;
84254;SDS011;74400;44.692;18.998;2023-12-29T07:46:33;23.63;;;13.10;;
84254;SDS011;74400;44.692;18.998;2023-12-29T07:48:59;22.63;;;13.13;;
84254;SDS011;74400;44.692;18.998;2023-12-29T07:51:24;21.52;;;12.68;;
84254;SDS011;74400;44.692;18.998;2023-12-29T07:53:50;17.38;;;11.00;;
84254;SDS011;74400;44.692;18.998;2023-12-29T07:56:16;16.13;;;10.45;;
84254;SDS011;74400;44.692;18.998;2023-12-29T07:58:41;19.50;;;11.35;;
84254;SDS011;74400;44.692;18.998;2023-12-29T08:01:13;19.08;;;10.65;;
84254;SDS011;74400;44.692;18.998;2023-12-29T08:03:40;15.52;;;9.90;;
84254;SDS011;74400;44.692;18.998;2023-12-29T08:06:06;19.58;;;10.63;;
84254;SDS011;74400;44.692;18.998;2023-12-29T08:08:31;12.43;;;7.40;;
84254;SDS011;74400;44.692;18.998;2023-12-29T08:10:57;20.67;;;12.85;;
84254;SDS011;74400;44.692;18.998;2023-12-29T08:16:23;8.20;;;5.75;;
84254;SDS011;74400;44.692;18.998;2023-12-29T08:18:49;8.38;;;6.00;;
84254;SDS011;74400;44.692;18.998;2023-12-29T08:21:18;9.13;;;5.25;;
84254;SDS011;74400;44.692;18.998;2023-12-29T08:23:48;6.07;;;4.00;;
84254;SDS011;74400;44.692;18.998;2023-12-29T08:26:14;8.30;;;4.07;;
84254;SDS011;74400;44.692;18.998;2023-12-29T08:28:40;8.98;;;4.50;;
84254;SDS011;74400;44.692;18.998;2023-12-29T08:31:09;8.32;;;4.00;;
84254;SDS011;74400;44.692;18.998;2023-12-29T08:33:35;4.88;;;4.30;;
84254;SDS011;74400;44.692;18.998;2023-12-29T08:36:01;15.57;;;5.53;;
84254;SDS011;74400;44.692;18.998;2023-12-29T08:38:29;11.82;;;4.38;;
84254;SDS011;74400;44.692;18.998;2023-12-29T08:40:56;6.57;;;4.07;;
84254;SDS011;74400;44.692;18.998;2023-12-29T08:43:22;5.35;;;3.75;;
84254;SDS011;74400;44.692;18.998;2023-12-29T08:45:47;7.05;;;3.47;;
84254;SDS011;74400;44.692;18.998;2023-12-29T08:48:13;9.93;;;4.53;;
84254;SDS011;74400;44.692;18.998;2023-12-29T08:50:39;6.65;;;3.78;;
84254;SDS011;74400;44.692;18.998;2023-12-29T08:53:05;5.65;;;3.88;;
84254;SDS011;74400;44.692;18.998;2023-12-29T08:55:30;7.22;;;4.10;;
84254;SDS011;74400;44.692;18.998;2023-12-29T08:57:59;8.05;;;4.45;;
84254;SDS011;74400;44.692;18.998;2023-12-29T09:00:24;15.75;;;4.18;;
84254;SDS011;74400;44.692;18.998;2023-12-29T09:02:50;9.55;;;4.55;;
84254;SDS011;74400;44.692;18.998;2023-12-29T09:05:16;24.55;;;5.07;;
84254;SDS011;74400;44.692;18.998;2023-12-29T09:07:41;5.95;;;4.03;;
84254;SDS011;74400;44.692;18.998;2023-12-29T09:10:07;8.88;;;4.43;;
84254;SDS011;74400;44.692;18.998;2023-12-29T09:12:36;5.57;;;4.38;;
84254;SDS011;74400;44.692;18.998;2023-12-29T09:15:02;9.77;;;4.32;;
84254;SDS011;74400;44.692;18.998;2023-12-29T09:17:28;4.93;;;3.92;;
84254;SDS011;74400;44.692;18.998;2023-12-29T09:19:54;5.70;;;3.60;;
84254;SDS011;74400;44.692;18.998;2023-12-29T09:22:20;6.78;;;4.10;;
84254;SDS011;74400;44.692;18.998;2023-12-29T09:24:45;5.25;;;3.58;;
84254;SDS011;74400;44.692;18.998;2023-12-29T09:27:11;6.57;;;3.83;;
84254;SDS011;74400;44.692;18.998;2023-12-29T09:29:37;9.13;;;3.95;;
84254;SDS011;74400;44.692;18.998;2023-12-29T09:32:06;16.85;;;4.82;;
84254;SDS011;74400;44.692;18.998;2023-12-29T09:34:36;6.70;;;4.00;;
84254;SDS011;74400;44.692;18.998;2023-12-29T09:37:01;6.18;;;4.30;;
84254;SDS011;74400;44.692;18.998;2023-12-29T09:39:28;10.25;;;4.75;;
84254;SDS011;74400;44.692;18.998;2023-12-29T09:41:55;7.95;;;4.80;;
84254;SDS011;74400;44.692;18.998;2023-12-29T09:44:23;10.00;;;4.60;;
84254;SDS011;74400;44.692;18.998;2023-12-29T09:46:54;7.78;;;3.70;;
84254;SDS011;74400;44.692;18.998;2023-12-29T09:49:22;5.47;;;3.72;;
84254;SDS011;74400;44.692;18.998;2023-12-29T09:51:49;5.40;;;3.47;;
84254;SDS011;74400;44.692;18.998;2023-12-29T09:54:15;7.63;;;4.28;;
84254;SDS011;74400;44.692;18.998;2023-12-29T09:56:41;5.03;;;4.18;;
84254;SDS011;74400;44.692;18.998;2023-12-29T09:59:10;4.95;;;3.15;;
84254;SDS011;74400;44.692;18.998;2023-12-29T10:01:38;7.63;;;4.00;;
84254;SDS011;74400;44.692;18.998;2023-12-29T10:04:06;3.92;;;3.33;;
84254;SDS011;74400;44.692;18.998;2023-12-29T10:06:34;6.80;;;3.13;;
84254;SDS011;74400;44.692;18.998;2023-12-29T10:09:02;5.75;;;3.33;;
84254;SDS011;74400;44.692;18.998;2023-12-29T10:11:30;3.90;;;2.90;;
84254;SDS011;74400;44.692;18.998;2023-12-29T10:14:02;6.80;;;3.20;;
84254;SDS011;74400;44.692;18.998;2023-12-29T10:16:33;9.15;;;3.55;;
84254;SDS011;74400;44.692;18.998;2023-12-29T10:19:08;10.60;;;3.50;;
84254;SDS011;74400;44.692;18.998;2023-12-29T10:24:24;5.28;;;2.80;;
84254;SDS011;74400;44.692;18.998;2023-12-29T10:26:49;5.88;;;2.50;;
84254;SDS011;74400;44.692;18.998;2023-12-29T10:29:18;7.18;;;2.90;;
84254;SDS011;74400;44.692;18.998;2023-12-29T10:31:45;5.03;;;2.55;;
84254;SDS011;74400;44.692;18.998;2023-12-29T10:34:21;9.15;;;3.15;;
84254;SDS011;74400;44.692;18.998;2023-12-29T10:36:58;12.65;;;3.67;;
84254;SDS011;74400;44.692;18.998;2023-12-29T10:39:27;4.68;;;2.40;;
84254;SDS011;74400;44.692;18.998;2023-12-29T10:42:03;6.50;;;2.20;;
84254;SDS011;74400;44.692;18.998;2023-12-29T10:44:30;5.28;;;2.92;;
84254;SDS011;74400;44.692;18.998;2023-12-29T10:46:56;4.53;;;2.53;;
84254;SDS011;74400;44.692;18.998;2023-12-29T10:49:22;4.65;;;2.47;;
84254;SDS011;74400;44.692;18.998;2023-12-29T10:51:47;8.25;;;3.22;;
84254;SDS011;74400;44.692;18.998;2023-12-29T10:54:20;3.50;;;2.38;;
84254;SDS011;74400;44.692;18.998;2023-12-29T10:57:01;3.97;;;2.22;;
84254;SDS011;74400;44.692;18.998;2023-12-29T10:59:28;4.57;;;2.45;;
84254;SDS011;74400;44.692;18.998;2023-12-29T11:01:54;4.45;;;2.45;;
84254;SDS011;74400;44.692;18.998;2023-12-29T11:04:24;6.97;;;2.70;;
84254;SDS011;74400;44.692;18.998;2023-12-29T11:06:49;7.35;;;3.17;;
84254;SDS011;74400;44.692;18.998;2023-12-29T11:09:29;4.30;;;2.53;;
84254;SDS011;74400;44.692;18.998;2023-12-29T11:11:57;4.88;;;2.90;;
84254;SDS011;74400;44.692;18.998;2023-12-29T11:14:24;3.25;;;2.20;;
84254;SDS011;74400;44.692;18.998;2023-12-29T11:16:51;3.42;;;2.40;;
84254;SDS011;74400;44.692;18.998;2023-12-29T11:19:17;8.30;;;2.78;;
84254;SDS011;74400;44.692;18.998;2023-12-29T11:21:43;9.68;;;3.10;;
84254;SDS011;74400;44.692;18.998;2023-12-29T11:24:10;14.65;;;4.80;;
84254;SDS011;74400;44.692;18.998;2023-12-29T11:26:36;13.80;;;4.97;;
84254;SDS011;74400;44.692;18.998;2023-12-29T11:29:02;10.88;;;5.50;;
84254;SDS011;74400;44.692;18.998;2023-12-29T11:31:30;11.63;;;5.05;;
84254;SDS011;74400;44.692;18.998;2023-12-29T11:36:30;13.00;;;4.97;;
84254;SDS011;74400;44.692;18.998;2023-12-29T11:44:04;5.80;;;3.78;;
84254;SDS011;74400;44.692;18.998;2023-12-29T11:49:01;7.03;;;3.55;;
84254;SDS011;74400;44.692;18.998;2023-12-29T11:51:33;4.88;;;2.70;;
84254;SDS011;74400;44.692;18.998;2023-12-29T11:54:02;4.97;;;3.58;;
84254;SDS011;74400;44.692;18.998;2023-12-29T11:56:34;5.50;;;3.58;;
84254;SDS011;74400;44.692;18.998;2023-12-29T12:01:33;7.88;;;3.40;;
84254;SDS011;74400;44.692;18.998;2023-12-29T12:04:02;5.20;;;3.03;;
84254;SDS011;74400;44.692;18.998;2023-12-29T12:06:37;5.05;;;2.90;;
84254;SDS011;74400;44.692;18.998;2023-12-29T12:09:16;5.80;;;2.65;;
84254;SDS011;74400;44.692;18.998;2023-12-29T12:11:46;7.80;;;4.05;;
84254;SDS011;74400;44.692;18.998;2023-12-29T12:17:26;9.63;;;4.07;;
84254;SDS011;74400;44.692;18.998;2023-12-29T12:19:59;5.53;;;2.80;;
84254;SDS011;74400;44.692;18.998;2023-12-29T12:22:30;7.85;;;3.10;;
84254;SDS011;74400;44.692;18.998;2023-12-29T12:24:57;8.45;;;3.53;;
84254;SDS011;74400;44.692;18.998;2023-12-29T12:27:25;13.40;;;3.88;;
84254;SDS011;74400;44.692;18.998;2023-12-29T12:29:55;7.90;;;3.28;;
84254;SDS011;74400;44.692;18.998;2023-12-29T12:32:28;10.63;;;5.05;;
84254;SDS011;74400;44.692;18.998;2023-12-29T12:34:54;13.90;;;8.30;;
84254;SDS011;74400;44.692;18.998;2023-12-29T12:37:25;9.00;;;4.80;;
84254;SDS011;74400;44.692;18.998;2023-12-29T12:39:52;8.27;;;4.35;;
84254;SDS011;74400;44.692;18.998;2023-12-29T12:42:19;5.25;;;3.08;;
84254;SDS011;74400;44.692;18.998;2023-12-29T12:47:32;7.55;;;4.00;;
84254;SDS011;74400;44.692;18.998;2023-12-29T12:50:28;8.55;;;4.78;;
84254;SDS011;74400;44.692;18.998;2023-12-29T12:53:20;12.38;;;5.78;;
84254;SDS011;74400;44.692;18.998;2023-12-29T12:55:47;9.18;;;4.72;;
84254;SDS011;74400;44.692;18.998;2023-12-29T12:58:15;11.23;;;4.43;;
84254;SDS011;74400;44.692;18.998;2023-12-29T13:00:46;7.05;;;4.18;;
84254;SDS011;74400;44.692;18.998;2023-12-29T13:03:15;10.45;;;4.03;;
84254;SDS011;74400;44.692;18.998;2023-12-29T13:05:41;10.32;;;5.07;;
84254;SDS011;74400;44.692;18.998;2023-12-29T13:08:07;9.50;;;4.00;;
84254;SDS011;74400;44.692;18.998;2023-12-29T13:10:40;9.20;;;3.97;;
84254;SDS011;74400;44.692;18.998;2023-12-29T13:13:11;10.80;;;5.63;;
84254;SDS011;74400;44.692;18.998;2023-12-29T13:15:49;9.82;;;5.35;;
84254;SDS011;74400;44.692;18.998;2023-12-29T13:18:16;10.45;;;5.38;;
84254;SDS011;74400;44.692;18.998;2023-12-29T13:20:48;13.15;;;6.57;;
84254;SDS011;74400;44.692;18.998;2023-12-29T13:23:16;10.45;;;4.97;;
84254;SDS011;74400;44.692;18.998;2023-12-29T13:25:44;9.13;;;5.35;;
84254;SDS011;74400;44.692;18.998;2023-12-29T13:28:13;8.18;;;4.57;;
84254;SDS011;74400;44.692;18.998;2023-12-29T13:30:40;7.20;;;4.55;;
84254;SDS011;74400;44.692;18.998;2023-12-29T13:33:10;7.10;;;4.43;;
84254;SDS011;74400;44.692;18.998;2023-12-29T13:35:45;12.25;;;5.28;;
84254;SDS011;74400;44.692;18.998;2023-12-29T13:38:18;6.45;;;3.85;;
84254;SDS011;74400;44.692;18.998;2023-12-29T13:43:30;22.88;;;9.00;;
84254;SDS011;74400;44.692;18.998;2023-12-29T13:45:58;19.23;;;9.40;;
84254;SDS011;74400;44.692;18.998;2023-12-29T13:48:25;20.42;;;9.82;;
84254;SDS011;74400;44.692;18.998;2023-12-29T13:50:52;27.17;;;13.93;;
84254;SDS011;74400;44.692;18.998;2023-12-29T13:53:20;25.70;;;14.23;;
84254;SDS011;74400;44.692;18.998;2023-12-29T13:55:47;17.92;;;9.30;;
84254;SDS011;74400;44.692;18.998;2023-12-29T13:58:14;12.13;;;6.50;;
84254;SDS011;74400;44.692;18.998;2023-12-29T14:00:42;11.68;;;5.60;;
84254;SDS011;74400;44.692;18.998;2023-12-29T14:03:15;11.35;;;5.57;;
84254;SDS011;74400;44.692;18.998;2023-12-29T14:05:51;19.70;;;11.07;;
84254;SDS011;74400;44.692;18.998;2023-12-29T14:08:32;20.33;;;11.32;;
84254;SDS011;74400;44.692;18.998;2023-12-29T14:11:07;17.52;;;8.88;;
84254;SDS011;74400;44.692;18.998;2023-12-29T14:13:42;14.00;;;7.68;;
84254;SDS011;74400;44.692;18.998;2023-12-29T14:16:14;11.95;;;6.70;;
84254;SDS011;74400;44.692;18.998;2023-12-29T14:21:30;14.05;;;6.63;;
84254;SDS011;74400;44.692;18.998;2023-12-29T14:26:55;8.88;;;5.03;;
84254;SDS011;74400;44.692;18.998;2023-12-29T14:29:22;22.02;;;10.90;;
84254;SDS011;74400;44.692;18.998;2023-12-29T14:31:48;21.15;;;8.48;;
84254;SDS011;74400;44.692;18.998;2023-12-29T14:34:16;30.98;;;14.30;;
84254;SDS011;74400;44.692;18.998;2023-12-29T14:36:42;84.80;;;34.55;;
84254;SDS011;74400;44.692;18.998;2023-12-29T14:39:08;146.30;;;64.32;;
84254;SDS011;74400;44.692;18.998;2023-12-29T14:41:35;55.10;;;24.50;;
84254;SDS011;74400;44.692;18.998;2023-12-29T14:44:01;96.25;;;44.15;;
84254;SDS011;74400;44.692;18.998;2023-12-29T14:46:27;116.35;;;51.58;;
84254;SDS011;74400;44.692;18.998;2023-12-29T14:48:54;95.18;;;40.03;;
84254;SDS011;74400;44.692;18.998;2023-12-29T14:51:22;143.93;;;61.65;;
84254;SDS011;74400;44.692;18.998;2023-12-29T14:53:48;171.10;;;74.07;;
84254;SDS011;74400;44.692;18.998;2023-12-29T14:56:15;122.32;;;53.63;;
84254;SDS011;74400;44.692;18.998;2023-12-29T14:58:41;54.80;;;25.95;;
84254;SDS011;74400;44.692;18.998;2023-12-29T15:01:08;35.20;;;15.73;;
84254;SDS011;74400;44.692;18.998;2023-12-29T15:03:34;37.95;;;16.75;;